createdAt,value
2022-09-28T00:02:07.829Z,0.80
2022-09-28T00:04:35.161Z,0.90
2022-09-28T00:07:02.516Z,1.20
2022-09-28T00:09:29.761Z,1.10
2022-09-28T00:11:57.413Z,1.00
2022-09-28T00:14:25.164Z,0.90
2022-09-28T00:16:52.531Z,0.90
2022-09-28T00:19:19.854Z,0.90
2022-09-28T00:21:47.983Z,0.90
2022-09-28T00:24:15.821Z,1.03
2022-09-28T00:26:43.152Z,1.20
2022-09-28T00:29:21.926Z,0.90
2022-09-28T00:31:49.728Z,0.93
2022-09-28T00:34:17.220Z,1.30
2022-09-28T00:36:45.905Z,0.90
2022-09-28T00:39:14.598Z,1.07
2022-09-28T00:41:42.270Z,0.90
2022-09-28T00:44:27.783Z,0.90
2022-09-28T00:46:58.079Z,0.90
2022-09-28T00:49:32.153Z,0.90
2022-09-28T00:51:59.908Z,0.83
2022-09-28T00:54:27.216Z,0.80
2022-09-28T00:56:54.618Z,0.90
2022-09-28T00:59:24.685Z,1.00
2022-09-28T01:01:52.150Z,0.93
2022-09-28T01:04:19.679Z,0.80
2022-09-28T01:06:47.726Z,1.00
2022-09-28T01:09:15.680Z,0.90
2022-09-28T01:11:43.711Z,0.80
2022-09-28T01:14:12.901Z,0.90
2022-09-28T01:16:53.550Z,0.77
2022-09-28T01:19:51.321Z,0.90
2022-09-28T01:22:37.579Z,0.83
2022-09-28T01:25:04.878Z,0.80
2022-09-28T01:27:38.355Z,0.80
2022-09-28T01:30:07.623Z,0.70
2022-09-28T01:32:55.257Z,0.90
2022-09-28T01:35:48.396Z,0.90
2022-09-28T01:38:31.133Z,0.93
2022-09-28T01:40:59.570Z,0.67
2022-09-28T01:43:30.846Z,0.80
2022-09-28T01:46:03.140Z,1.00
2022-09-28T01:48:33.946Z,0.87
2022-09-28T01:51:02.802Z,0.80
2022-09-28T01:53:34.635Z,0.90
2022-09-28T01:56:08.083Z,0.80
2022-09-28T01:58:41.771Z,0.87
2022-09-28T02:01:11.663Z,0.80
2022-09-28T02:03:39.269Z,0.90
2022-09-28T02:06:09.039Z,0.80
2022-09-28T02:08:41.960Z,0.80
2022-09-28T02:11:12.332Z,0.70
2022-09-28T02:13:41.173Z,0.80
2022-09-28T02:16:17.392Z,0.83
2022-09-28T02:18:45.174Z,0.80
2022-09-28T02:21:26.986Z,0.87
2022-09-28T02:23:58.520Z,0.93
2022-09-28T02:26:30.378Z,0.70
2022-09-28T02:28:58.678Z,0.83
2022-09-28T02:31:26.895Z,0.80
2022-09-28T02:33:55.623Z,0.80
2022-09-28T02:36:23.962Z,0.80
2022-09-28T02:38:51.731Z,0.90
2022-09-28T02:41:25.085Z,0.70
2022-09-28T02:44:11.373Z,0.90
2022-09-28T02:46:49.968Z,0.80
2022-09-28T02:49:38.088Z,0.77
2022-09-28T02:52:11.493Z,0.80
2022-09-28T02:54:41.884Z,0.80
2022-09-28T02:57:13.562Z,0.97
2022-09-28T02:59:46.153Z,0.80
2022-09-28T03:02:19.670Z,0.80
2022-09-28T03:04:53.098Z,0.80
2022-09-28T03:07:29.812Z,0.80
2022-09-28T03:10:02.234Z,0.80
2022-09-28T03:12:31.469Z,0.73
2022-09-28T03:15:28.049Z,0.80
2022-09-28T03:17:57.287Z,0.80
2022-09-28T03:20:25.212Z,0.70
2022-09-28T03:23:12.708Z,0.80
2022-09-28T03:25:40.738Z,0.80
2022-09-28T03:28:07.994Z,0.77
2022-09-28T03:30:39.308Z,0.90
2022-09-28T03:33:07.040Z,0.80
2022-09-28T03:35:34.389Z,0.90
2022-09-28T03:38:01.834Z,0.70
2022-09-28T03:40:31.338Z,0.80
2022-09-28T03:42:59.956Z,0.70
2022-09-28T03:45:27.321Z,0.80
2022-09-28T03:47:55.002Z,0.70
2022-09-28T03:50:22.469Z,0.67
2022-09-28T03:52:49.774Z,0.83
2022-09-28T03:55:17.254Z,0.70
2022-09-28T03:57:44.549Z,0.80
2022-09-28T04:00:12.806Z,0.77
2022-09-28T04:02:42.748Z,0.80
2022-09-28T04:05:10.114Z,0.87
2022-09-28T04:07:38.294Z,0.70
2022-09-28T04:10:05.742Z,0.60
2022-09-28T04:12:33.170Z,0.70
2022-09-28T04:15:00.438Z,0.70
2022-09-28T04:17:27.803Z,0.87
2022-09-28T04:19:55.946Z,0.70
2022-09-28T04:22:37.745Z,0.80
2022-09-28T04:25:05.329Z,0.70
2022-09-28T04:27:51.188Z,0.60
2022-09-28T04:30:18.723Z,0.90
2022-09-28T04:32:49.583Z,0.80
2022-09-28T04:35:17.678Z,0.63
2022-09-28T04:37:45.038Z,0.70
2022-09-28T04:40:12.302Z,0.60
2022-09-28T04:42:39.642Z,0.50
2022-09-28T04:45:07.267Z,0.80
2022-09-28T04:47:38.026Z,0.67
2022-09-28T04:50:37.712Z,0.70
2022-09-28T04:53:17.115Z,0.60
2022-09-28T04:55:44.703Z,0.70
2022-09-28T04:58:12.018Z,0.67
2022-09-28T05:00:40.158Z,0.80
2022-09-28T05:03:36.104Z,0.70
2022-09-28T05:06:16.780Z,0.80
2022-09-28T05:08:47.235Z,0.70
2022-09-28T05:11:15.709Z,0.70
2022-09-28T05:13:45.193Z,0.60
2022-09-28T05:16:16.166Z,0.80
2022-09-28T05:19:02.556Z,1.10
2022-09-28T05:21:30.843Z,0.70
2022-09-28T05:23:58.732Z,0.70
2022-09-28T05:26:26.806Z,0.73
2022-09-28T05:28:54.110Z,0.70
2022-09-28T05:31:44.251Z,0.70
2022-09-28T05:34:30.165Z,1.00
2022-09-28T05:36:57.629Z,0.80
2022-09-28T05:39:25.074Z,0.70
2022-09-28T05:41:52.339Z,0.80
2022-09-28T05:44:19.789Z,0.90
2022-09-28T05:46:48.174Z,0.80
2022-09-28T05:49:17.610Z,0.90
2022-09-28T05:51:44.914Z,0.90
2022-09-28T05:54:12.205Z,0.80
2022-09-28T05:56:42.925Z,0.90
2022-09-28T05:59:10.277Z,0.83
2022-09-28T06:01:37.821Z,0.80
2022-09-28T06:04:08.957Z,0.83
2022-09-28T06:06:38.372Z,0.80
2022-09-28T06:09:05.625Z,0.80
2022-09-28T06:11:44.583Z,0.90
2022-09-28T06:14:32.095Z,0.90
2022-09-28T06:16:59.487Z,0.90
2022-09-28T06:19:26.842Z,0.80
2022-09-28T06:22:08.789Z,0.80
2022-09-28T06:24:44.562Z,0.80
2022-09-28T06:27:11.857Z,0.80
2022-09-28T06:29:39.153Z,0.90
2022-09-28T06:32:07.400Z,1.00
2022-09-28T06:34:36.044Z,0.70
2022-09-28T06:37:04.681Z,0.80
2022-09-28T06:39:32.511Z,0.90
2022-09-28T06:42:03.198Z,0.87
2022-09-28T06:44:50.564Z,0.77
2022-09-28T06:47:37.793Z,0.80
2022-09-28T06:50:25.219Z,0.80
2022-09-28T06:53:16.283Z,0.80
2022-09-28T06:55:50.692Z,1.00
2022-09-28T06:58:19.771Z,0.90
2022-09-28T07:00:48.056Z,0.80
2022-09-28T07:03:17.509Z,0.80
2022-09-28T07:06:10.935Z,0.80
2022-09-28T07:09:22.072Z,1.00
2022-09-28T07:12:10.742Z,0.80
2022-09-28T07:14:56.106Z,0.90
2022-09-28T07:17:24.278Z,1.00
2022-09-28T07:19:58.718Z,0.93
2022-09-28T07:22:40.466Z,0.93
2022-09-28T07:25:10.395Z,0.90
2022-09-28T07:27:59.863Z,1.10
2022-09-28T07:30:53.830Z,1.10
2022-09-28T07:33:54.041Z,0.90
2022-09-28T07:36:36.354Z,0.80
2022-09-28T07:39:04.275Z,1.00
2022-09-28T07:41:35.022Z,1.00
2022-09-28T07:44:07.465Z,0.90
2022-09-28T07:46:37.167Z,0.90
2022-09-28T07:49:16.550Z,0.90
2022-09-28T07:52:10.719Z,0.80
2022-09-28T07:54:57.971Z,1.00
2022-09-28T07:57:46.997Z,0.90
2022-09-28T08:00:22.788Z,0.90
2022-09-28T08:02:50.185Z,0.90
2022-09-28T08:05:22.142Z,0.97
2022-09-28T08:07:49.440Z,0.90
2022-09-28T08:10:17.810Z,1.00
2022-09-28T08:13:06.391Z,0.80
2022-09-28T08:16:02.194Z,0.80
2022-09-28T08:18:36.034Z,0.90
2022-09-28T08:21:22.598Z,0.90
2022-09-28T08:23:50.141Z,0.80
2022-09-28T08:26:17.781Z,0.80
2022-09-28T08:28:47.751Z,0.90
2022-09-28T08:31:38.042Z,0.83
2022-09-28T08:34:28.922Z,0.90
2022-09-28T08:37:05.744Z,0.83
2022-09-28T08:40:18.687Z,0.90
2022-09-28T08:43:07.166Z,1.00
2022-09-28T08:45:53.110Z,0.90
2022-09-28T08:48:56.330Z,1.00
2022-09-28T08:51:51.901Z,0.80
2022-09-28T08:54:34.538Z,0.80
2022-09-28T08:57:06.340Z,0.80
2022-09-28T08:59:53.301Z,0.70
2022-09-28T09:02:36.131Z,0.80
2022-09-28T09:05:15.282Z,0.90
2022-09-28T09:08:15.991Z,0.80
2022-09-28T09:10:52.779Z,1.00
2022-09-28T09:13:40.471Z,0.90
2022-09-28T09:16:23.208Z,0.87
2022-09-28T09:19:16.566Z,1.00
2022-09-28T09:22:27.440Z,0.90
2022-09-28T09:25:01.426Z,0.90
2022-09-28T09:27:39.037Z,1.00
2022-09-28T09:30:17.621Z,0.90
2022-09-28T09:33:17.076Z,1.10
2022-09-28T09:36:07.031Z,0.80
2022-09-28T09:39:25.395Z,0.80
2022-09-28T09:42:21.776Z,0.90
2022-09-28T09:45:07.695Z,0.90
2022-09-28T09:48:10.902Z,0.90
2022-09-28T09:50:57.340Z,0.90
2022-09-28T09:53:25.096Z,0.90
2022-09-28T09:55:57.301Z,1.00
2022-09-28T09:58:39.426Z,1.10
2022-09-28T10:01:22.005Z,1.00
2022-09-28T10:04:14.987Z,0.90
2022-09-28T10:06:42.994Z,0.90
2022-09-28T10:09:10.269Z,0.90
2022-09-28T10:11:40.652Z,0.90
2022-09-28T10:14:14.374Z,1.00
2022-09-28T10:16:48.458Z,0.80
2022-09-28T10:19:35.484Z,0.80
2022-09-28T10:22:27.771Z,0.90
2022-09-28T10:24:58.456Z,0.90
2022-09-28T10:27:27.598Z,0.80
2022-09-28T10:30:10.679Z,0.87
2022-09-28T10:32:45.258Z,0.90
2022-09-28T10:35:19.152Z,0.80
2022-09-28T10:37:54.249Z,0.90
2022-09-28T10:40:45.779Z,0.83
2022-09-28T10:43:19.888Z,0.90
2022-09-28T10:45:47.551Z,0.70
2022-09-28T10:48:17.310Z,0.80
2022-09-28T10:50:57.771Z,0.90
2022-09-28T10:53:25.086Z,1.00
2022-09-28T10:56:20.151Z,1.10
2022-09-28T10:58:49.399Z,1.00
2022-09-28T11:01:26.897Z,1.10
2022-09-28T11:03:58.722Z,1.00
2022-09-28T11:06:27.873Z,1.00
2022-09-28T11:08:57.579Z,1.10
2022-09-28T11:11:25.050Z,1.00
2022-09-28T11:14:01.533Z,1.13
2022-09-28T11:16:36.378Z,1.10
2022-09-28T11:19:20.680Z,1.00
2022-09-28T11:21:49.166Z,1.10
2022-09-28T11:24:21.761Z,1.20
2022-09-28T11:26:52.866Z,1.03
2022-09-28T11:29:37.845Z,1.10
2022-09-28T11:32:29.042Z,1.80
2022-09-28T11:35:23.648Z,1.40
2022-09-28T11:38:04.525Z,1.30
2022-09-28T11:40:58.320Z,1.10
2022-09-28T11:43:37.060Z,1.00
2022-09-28T11:46:09.484Z,1.10
2022-09-28T11:48:46.751Z,1.00
2022-09-28T11:51:23.879Z,1.40
2022-09-28T11:53:57.458Z,1.30
2022-09-28T11:56:34.857Z,1.20
2022-09-28T11:59:22.446Z,1.20
2022-09-28T12:01:57.627Z,1.20
2022-09-28T12:04:55.299Z,1.30
2022-09-28T12:07:24.666Z,1.10
2022-09-28T12:10:09.947Z,1.30
2022-09-28T12:12:45.525Z,0.90
2022-09-28T12:15:22.046Z,1.03
2022-09-28T12:17:51.729Z,1.80
2022-09-28T12:20:19.134Z,1.77
2022-09-28T12:22:55.647Z,2.00
2022-09-28T12:25:24.070Z,1.30
2022-09-28T12:27:56.819Z,0.97
2022-09-28T12:30:27.955Z,1.20
2022-09-28T12:33:02.340Z,0.80
2022-09-28T12:35:41.598Z,0.93
2022-09-28T12:38:15.088Z,0.97
2022-09-28T12:40:48.582Z,1.00
2022-09-28T12:43:43.496Z,1.00
2022-09-28T12:46:17.561Z,1.40
2022-09-28T12:49:51.544Z,1.70
2022-09-28T12:51:53.886Z,2.00
2022-09-28T12:54:39.460Z,1.20
2022-09-28T12:57:20.633Z,1.30
2022-09-28T13:00:01.061Z,1.10
2022-09-28T13:02:40.790Z,1.00
2022-09-28T13:05:19.688Z,1.00
2022-09-28T13:07:53.860Z,1.00
2022-09-28T13:10:42.126Z,1.00
2022-09-28T13:13:21.449Z,1.10
2022-09-28T13:15:54.321Z,2.00
2022-09-28T13:18:27.205Z,1.27
2022-09-28T13:20:54.476Z,1.20
2022-09-28T13:23:23.082Z,1.03
2022-09-28T13:26:03.273Z,1.00
2022-09-28T13:28:32.813Z,1.00
2022-09-28T13:31:00.730Z,0.90
2022-09-28T13:33:36.809Z,0.90
2022-09-28T13:36:05.661Z,1.10
2022-09-28T13:38:52.188Z,1.00
2022-09-28T13:41:47.545Z,0.90
2022-09-28T13:44:17.843Z,0.80
2022-09-28T13:46:47.948Z,0.80
2022-09-28T13:49:23.252Z,0.80
2022-09-28T13:51:56.722Z,0.90
2022-09-28T13:54:42.957Z,0.80
2022-09-28T13:57:14.781Z,0.80
2022-09-28T14:00:06.142Z,0.90
2022-09-28T14:02:43.016Z,0.90
2022-09-28T14:05:29.767Z,1.00
2022-09-28T14:08:09.364Z,0.80
2022-09-28T14:10:48.851Z,0.80
2022-09-28T14:13:36.067Z,0.90
2022-09-28T14:16:23.571Z,0.80
2022-09-28T14:18:55.021Z,0.80
2022-09-28T14:21:28.024Z,0.80
2022-09-28T14:24:01.474Z,0.97
2022-09-28T14:26:52.168Z,0.95
2022-09-28T14:29:30.054Z,1.10
2022-09-28T14:31:58.365Z,1.00
2022-09-28T14:34:45.955Z,1.03
2022-09-28T14:37:40.151Z,1.07
2022-09-28T14:40:40.506Z,1.00
2022-09-28T14:43:26.804Z,1.27
2022-09-28T14:46:12.230Z,0.93
2022-09-28T14:48:47.868Z,0.90
2022-09-28T14:51:27.442Z,0.90
2022-09-28T14:53:55.808Z,0.80
2022-09-28T14:56:23.098Z,0.80
2022-09-28T14:58:54.147Z,1.00
2022-09-28T15:01:22.409Z,0.83
2022-09-28T15:03:52.294Z,0.90
2022-09-28T15:06:22.832Z,0.80
2022-09-28T15:08:50.098Z,0.90
2022-09-28T15:11:24.897Z,0.80
2022-09-28T15:14:04.971Z,0.80
2022-09-28T15:16:32.610Z,0.70
2022-09-28T15:19:08.795Z,0.77
2022-09-28T15:21:37.429Z,0.90
2022-09-28T15:24:24.296Z,0.60
2022-09-28T15:26:51.569Z,0.70
2022-09-28T15:29:19.605Z,0.70
2022-09-28T15:31:48.974Z,0.80
2022-09-28T15:34:56.834Z,0.80
2022-09-28T15:37:27.101Z,0.80
2022-09-28T15:39:55.379Z,0.80
2022-09-28T15:42:22.877Z,0.93
2022-09-28T15:45:10.586Z,0.90
2022-09-28T15:47:40.072Z,0.87
2022-09-28T15:50:19.537Z,0.80
2022-09-28T15:52:53.098Z,1.00
2022-09-28T15:55:23.976Z,0.90
2022-09-28T15:57:51.651Z,0.93
2022-09-28T16:00:22.791Z,1.00
2022-09-28T16:03:05.399Z,0.83
2022-09-28T16:05:55.847Z,1.00
2022-09-28T16:08:24.771Z,0.90
2022-09-28T16:10:54.125Z,0.87
2022-09-28T16:13:23.109Z,0.90
2022-09-28T16:16:00.604Z,0.80
2022-09-28T16:18:29.465Z,0.90
2022-09-28T16:20:59.193Z,0.90
2022-09-28T16:23:34.218Z,0.90
2022-09-28T16:26:07.971Z,0.80
2022-09-28T16:28:39.141Z,0.80
2022-09-28T16:31:27.847Z,0.90
2022-09-28T16:33:56.626Z,0.70
2022-09-28T16:36:27.362Z,0.83
2022-09-28T16:38:55.194Z,0.90
2022-09-28T16:41:26.052Z,0.80
2022-09-28T16:44:01.037Z,0.77
2022-09-28T16:46:39.282Z,0.83
2022-09-28T16:49:07.290Z,0.80
2022-09-28T16:51:34.633Z,0.88
2022-09-28T16:54:34.494Z,0.80
2022-09-28T16:57:02.194Z,0.80
2022-09-28T16:59:29.726Z,0.80
2022-09-28T17:01:57.269Z,0.83
2022-09-28T17:04:25.072Z,0.80
2022-09-28T17:06:54.245Z,0.73
2022-09-28T17:09:24.295Z,0.80
2022-09-28T17:11:56.874Z,0.63
2022-09-28T17:14:24.672Z,0.70
2022-09-28T17:17:08.172Z,1.10
2022-09-28T17:19:37.056Z,0.83
2022-09-28T17:22:04.327Z,0.80
2022-09-28T17:24:31.590Z,0.73
2022-09-28T17:27:00.764Z,0.80
2022-09-28T17:29:28.077Z,0.70
2022-09-28T17:31:55.339Z,0.77
2022-09-28T17:34:22.741Z,0.80
2022-09-28T17:36:50.084Z,0.70
2022-09-28T17:39:19.063Z,0.47
2022-09-28T17:41:46.405Z,0.73
2022-09-28T17:44:16.840Z,0.70
2022-09-28T17:46:46.318Z,0.67
2022-09-28T17:49:13.881Z,0.80
2022-09-28T17:51:41.219Z,0.80
2022-09-28T17:54:08.950Z,0.73
2022-09-28T17:56:36.391Z,0.80
2022-09-28T17:59:07.843Z,0.70
2022-09-28T18:01:38.784Z,0.70
2022-09-28T18:04:08.078Z,0.80
2022-09-28T18:06:37.031Z,0.87
2022-09-28T18:09:04.972Z,0.83
2022-09-28T18:11:32.917Z,0.77
2022-09-28T18:14:00.622Z,1.03
2022-09-28T18:16:28.940Z,0.80
2022-09-28T18:18:56.472Z,0.90
2022-09-28T18:21:23.754Z,0.90
2022-09-28T18:23:51.176Z,0.90
2022-09-28T18:26:21.890Z,0.90
2022-09-28T18:28:49.156Z,0.90
2022-09-28T18:31:19.088Z,0.90
2022-09-28T18:33:48.275Z,0.80
2022-09-28T18:36:15.578Z,0.80
2022-09-28T18:38:42.915Z,1.00
2022-09-28T18:41:10.933Z,0.70
2022-09-28T18:43:38.322Z,0.80
2022-09-28T18:46:07.080Z,0.83
2022-09-28T18:48:35.947Z,0.90
2022-09-28T18:51:03.557Z,0.80
2022-09-28T18:53:34.745Z,0.80
2022-09-28T18:56:06.125Z,0.90
2022-09-28T18:58:34.645Z,0.87
2022-09-28T19:01:28.581Z,0.90
2022-09-28T19:03:54.030Z,0.90
2022-09-28T19:06:21.371Z,1.00
2022-09-28T19:08:52.896Z,0.83
2022-09-28T19:11:20.147Z,0.80
2022-09-28T19:13:47.498Z,0.90
2022-09-28T19:16:19.195Z,0.90
2022-09-28T19:18:46.539Z,1.00
2022-09-28T19:21:14.435Z,0.90
2022-09-28T19:23:44.814Z,0.90
2022-09-28T19:26:16.822Z,0.80
2022-09-28T19:28:44.293Z,1.00
2022-09-28T19:31:11.826Z,0.90
2022-09-28T19:33:39.974Z,1.00
2022-09-28T19:36:08.467Z,0.87
2022-09-28T19:38:36.427Z,0.80
2022-09-28T19:41:08.865Z,0.80
2022-09-28T19:43:36.364Z,0.90
2022-09-28T19:46:05.498Z,0.90
2022-09-28T19:48:33.497Z,0.80
2022-09-28T19:51:02.095Z,1.00
2022-09-28T19:53:30.561Z,0.80
2022-09-28T19:55:58.637Z,0.90
2022-09-28T19:58:28.542Z,0.90
2022-09-28T20:00:55.783Z,0.93
2022-09-28T20:03:24.543Z,0.90
2022-09-28T20:05:57.125Z,0.97
2022-09-28T20:08:24.483Z,0.97
2022-09-28T20:10:53.370Z,0.90
2022-09-28T20:13:21.266Z,0.83
2022-09-28T20:15:48.616Z,1.07
2022-09-28T20:18:16.387Z,0.83
2022-09-28T20:20:43.799Z,1.00
2022-09-28T20:23:11.060Z,0.83
2022-09-28T20:25:38.777Z,0.90
2022-09-28T20:28:06.179Z,1.00
2022-09-28T20:30:33.477Z,1.20
2022-09-28T20:33:00.733Z,1.00
2022-09-28T20:35:32.959Z,0.93
2022-09-28T20:38:07.909Z,0.90
2022-09-28T20:40:40.139Z,0.90
2022-09-28T20:43:07.798Z,0.80
2022-09-28T20:45:38.267Z,0.70
2022-09-28T20:48:06.455Z,1.03
2022-09-28T20:50:34.343Z,0.80
2022-09-28T20:53:02.216Z,0.90
2022-09-28T20:55:29.481Z,1.00
2022-09-28T20:57:56.741Z,0.77
2022-09-28T21:00:24.065Z,1.00
2022-09-28T21:02:52.103Z,0.90
2022-09-28T21:05:19.420Z,0.93
2022-09-28T21:07:46.708Z,0.97
2022-09-28T21:10:14.002Z,1.00
2022-09-28T21:12:41.881Z,1.00
2022-09-28T21:15:09.507Z,1.20
2022-09-28T21:17:36.752Z,1.10
2022-09-28T21:20:04.462Z,0.90
2022-09-28T21:22:31.738Z,1.00
2022-09-28T21:24:58.974Z,1.00
2022-09-28T21:27:26.256Z,1.10
2022-09-28T21:29:53.540Z,0.90
2022-09-28T21:32:20.839Z,1.10
2022-09-28T21:34:48.099Z,1.10
2022-09-28T21:37:15.355Z,1.13
2022-09-28T21:39:42.682Z,1.10
2022-09-28T21:42:09.959Z,1.13
2022-09-28T21:44:37.246Z,1.10
2022-09-28T21:47:04.550Z,1.03
2022-09-28T21:49:31.888Z,1.10
2022-09-28T21:51:59.191Z,1.30
2022-09-28T21:54:27.427Z,1.00
2022-09-28T21:56:54.719Z,1.20
2022-09-28T21:59:22.111Z,1.00
2022-09-28T22:01:49.385Z,1.10
2022-09-28T22:04:17.105Z,1.20
2022-09-28T22:06:44.421Z,1.00
2022-09-28T22:09:11.668Z,1.00
2022-09-28T22:11:38.961Z,1.00
2022-09-28T22:14:06.199Z,1.10
2022-09-28T22:16:33.454Z,1.07
2022-09-28T22:19:00.757Z,1.10
2022-09-28T22:21:32.636Z,0.90
2022-09-28T22:24:03.893Z,1.00
2022-09-28T22:26:32.123Z,1.17
2022-09-28T22:29:00.377Z,1.10
2022-09-28T22:31:28.904Z,1.20
2022-09-28T22:33:56.613Z,1.10
2022-09-28T22:36:24.387Z,1.20
2022-09-28T22:38:51.669Z,1.10
2022-09-28T22:41:20.887Z,1.03
2022-09-28T22:43:48.942Z,1.27
2022-09-28T22:46:17.782Z,1.10
2022-09-28T22:48:48.666Z,1.10
2022-09-28T22:51:16.483Z,1.10
2022-09-28T22:53:43.802Z,1.23
2022-09-28T22:56:15.923Z,1.10
2022-09-28T22:58:45.659Z,1.27
2022-09-28T23:01:18.547Z,1.10
2022-09-28T23:03:46.244Z,1.00
2022-09-28T23:06:14.943Z,1.00
2022-09-28T23:08:42.266Z,1.00
2022-09-28T23:11:09.786Z,1.20
2022-09-28T23:13:38.264Z,1.00
2022-09-28T23:16:06.889Z,1.20
2022-09-28T23:18:35.816Z,1.20
2022-09-28T23:21:04.881Z,1.10
2022-09-28T23:23:32.444Z,1.10
2022-09-28T23:25:59.873Z,1.20
2022-09-28T23:28:27.650Z,1.00
2022-09-28T23:30:55.345Z,1.00
2022-09-28T23:33:23.025Z,1.10
2022-09-28T23:35:50.275Z,1.30
2022-09-28T23:38:18.542Z,1.30
2022-09-28T23:40:46.453Z,1.13
2022-09-28T23:43:14.415Z,1.00
2022-09-28T23:45:43.785Z,1.10
2022-09-28T23:48:11.111Z,1.30
2022-09-28T23:50:38.448Z,1.10
2022-09-28T23:53:06.534Z,1.37
2022-09-28T23:55:33.984Z,1.20
2022-09-28T23:58:01.209Z,1.27
